Time,TemperatureF,DewpointF,PressureIn,WindDirection,WindDirectionDegrees,WindSpeedMPH,WindSpeedGustMPH,Humidity,HourlyPrecipIn,Conditions,Clouds,dailyrainin,SoftwareType,DateUTC
2013-06-16 00:00:00,57.6,41.5,29.97,NW,323,0.0,0.0,55,0.00,,SKC,0.00,VWS V14.01,2013-06-16 04:00:00,
2013-06-16 00:20:00,57.4,43.2,29.97,NW,323,0.0,0.0,59,0.00,,SKC,0.00,VWS V14.01,2013-06-16 04:20:00,
2013-06-16 00:40:00,57.2,44.3,29.97,NW,323,0.0,0.0,62,0.00,,SKC,0.00,VWS V14.01,2013-06-16 04:40:00,
2013-06-16 01:00:00,56.8,45.2,29.97,NW,323,0.0,0.0,65,0.00,,SKC,0.00,VWS V14.01,2013-06-16 05:00:00,
2013-06-16 01:20:00,56.7,46.2,29.97,NW,323,0.0,0.0,68,0.00,,SKC,0.00,VWS V14.01,2013-06-16 05:20:00,
2013-06-16 01:40:00,56.5,46.5,29.97,NW,323,0.0,0.0,69,0.00,,SKC,0.00,VWS V14.01,2013-06-16 05:40:00,
2013-06-16 02:00:00,56.3,46.7,29.97,NW,323,0.0,0.0,70,0.00,,SKC,0.00,VWS V14.01,2013-06-16 06:00:00,
2013-06-16 02:20:00,55.9,47.1,29.97,NW,323,0.0,0.0,72,0.00,,SKC,0.00,VWS V14.01,2013-06-16 06:20:00,
2013-06-16 02:40:00,55.8,47.2,29.97,NW,323,0.0,0.0,73,0.00,,SKC,0.00,VWS V14.01,2013-06-16 06:40:00,
2013-06-16 03:00:00,55.4,47.3,29.97,NW,323,0.0,0.0,74,0.00,,SKC,0.00,VWS V14.01,2013-06-16 07:00:00,
2013-06-16 03:20:00,54.9,47.1,29.97,NW,323,0.0,0.0,75,0.00,,SKC,0.00,VWS V14.01,2013-06-16 07:20:00,
2013-06-16 03:40:00,54.7,47.3,29.97,NW,323,0.0,0.0,76,0.00,,SKC,0.00,VWS V14.01,2013-06-16 07:40:00,
2013-06-16 04:00:00,54.5,47.5,29.97,NW,323,0.0,0.0,77,0.00,,SKC,0.00,VWS V14.01,2013-06-16 08:00:00,
2013-06-16 04:20:00,54.1,47.4,29.94,NW,323,0.0,0.0,78,0.00,,SKC,0.00,VWS V14.01,2013-06-16 08:20:00,
2013-06-16 04:40:00,54.0,47.6,29.94,NW,323,0.0,0.0,79,0.00,,SKC,0.00,VWS V14.01,2013-06-16 08:40:00,
2013-06-16 05:00:00,53.6,47.3,29.97,NW,323,0.0,0.0,79,0.00,,SKC,0.00,VWS V14.01,2013-06-16 09:00:00,
2013-06-16 05:20:00,53.2,47.2,29.97,NW,323,0.0,0.0,80,0.00,,SKC,0.00,VWS V14.01,2013-06-16 09:20:00,
2013-06-16 05:40:00,53.1,47.4,29.97,NW,323,0.0,0.0,81,0.00,,SKC,0.00,VWS V14.01,2013-06-16 09:40:00,
2013-06-16 06:00:00,53.1,47.4,29.97,NW,323,0.0,0.0,81,0.00,,SKC,0.00,VWS V14.01,2013-06-16 10:00:00,
2013-06-16 06:20:00,52.9,47.5,29.97,NW,323,0.0,0.0,82,0.00,,SKC,0.00,VWS V14.01,2013-06-16 10:20:00,
2013-06-16 06:40:00,53.1,48.0,29.97,NW,323,0.0,0.0,83,0.00,,SKC,0.00,VWS V14.01,2013-06-16 10:40:00,
2013-06-16 07:00:00,53.4,48.4,29.97,NW,323,0.0,0.0,83,0.00,,SKC,0.00,VWS V14.01,2013-06-16 11:00:00,
2013-06-16 07:20:00,53.8,48.8,29.97,NW,323,0.0,0.0,83,0.00,,SKC,0.00,VWS V14.01,2013-06-16 11:20:00,
2013-06-16 07:40:00,54.5,49.8,29.97,NW,323,0.0,0.0,84,0.00,,SKC,0.00,VWS V14.01,2013-06-16 11:40:00,
2013-06-16 08:00:00,56.5,52.0,29.97,NW,323,0.0,0.0,85,0.00,,SKC,0.00,VWS V14.01,2013-06-16 12:00:00,
2013-06-16 08:20:00,59.2,54.4,29.97,NW,323,0.0,0.0,84,0.00,,SKC,0.00,VWS V14.01,2013-06-16 12:20:00,
2013-06-16 08:40:00,63.5,59.9,30.00,NW,324,0.0,0.0,88,0.00,,SKC,0.00,VWS V14.01,2013-06-16 12:40:00,
2013-06-16 09:00:00,66.9,62.3,30.00,NW,320,0.0,0.0,85,0.00,,SKC,0.00,VWS V14.01,2013-06-16 13:00:00,
2013-06-16 09:20:00,69.8,50.3,30.00,NNW,346,3.1,5.8,50,0.00,,SKC,0.00,VWS V14.01,2013-06-16 13:20:00,
2013-06-16 09:40:00,72.7,43.5,30.00,West,281,2.2,4.9,35,0.00,,SKC,0.00,VWS V14.01,2013-06-16 13:40:00,
2013-06-16 10:00:00,72.5,41.8,30.00,WNW,288,2.7,3.1,33,0.00,,SKC,0.00,VWS V14.01,2013-06-16 14:00:00,
2013-06-16 10:20:00,70.9,41.1,29.97,NW,308,0.0,5.4,34,0.00,,SKC,0.00,VWS V14.01,2013-06-16 14:20:00,
2013-06-16 10:40:00,74.1,31.7,29.97,WNW,299,5.8,6.7,21,0.00,,SKC,0.00,VWS V14.01,2013-06-16 14:40:00,
2013-06-16 11:00:00,74.8,28.5,29.97,NNW,341,4.0,10.5,18,0.00,,SKC,0.00,VWS V14.01,2013-06-16 15:00:00,
2013-06-16 11:20:00,75.7,24.9,29.97,West,271,5.4,8.3,15,0.00,,SKC,0.00,VWS V14.01,2013-06-16 15:20:00,
2013-06-16 11:40:00,76.1,29.6,29.97,North,2,4.0,5.4,18,0.00,,SKC,0.00,VWS V14.01,2013-06-16 15:40:00,
2013-06-16 12:00:00,75.4,24.6,29.97,West,264,4.5,8.1,15,0.00,,SKC,0.00,VWS V14.01,2013-06-16 16:00:00,
2013-06-16 12:20:00,75.2,24.4,29.97,WNW,296,0.0,6.3,15,0.00,,SKC,0.00,VWS V14.01,2013-06-16 16:20:00,
2013-06-16 12:40:00,77.0,25.9,29.97,NNW,334,4.0,4.0,15,0.00,,SKC,0.00,VWS V14.01,2013-06-16 16:40:00,
2013-06-16 13:00:00,75.0,28.7,29.97,WNW,295,2.7,5.4,18,0.00,,SKC,0.00,VWS V14.01,2013-06-16 17:00:00,
2013-06-16 13:20:00,77.5,26.3,29.97,WNW,285,5.8,5.8,15,0.00,,SKC,0.00,VWS V14.01,2013-06-16 17:20:00,
2013-06-16 13:40:00,77.4,26.1,29.97,NNW,328,5.8,8.7,15,0.00,,SKC,0.00,VWS V14.01,2013-06-16 17:40:00,
2013-06-16 14:00:00,75.6,24.7,29.97,WNW,298,4.0,7.6,15,0.00,,SKC,0.00,VWS V14.01,2013-06-16 18:00:00,
2013-06-16 14:20:00,76.5,25.4,29.94,West,277,0.0,4.9,15,0.00,,SKC,0.00,VWS V14.01,2013-06-16 18:20:00,
2013-06-16 14:40:00,74.8,28.5,29.94,NW,313,0.0,5.4,18,0.00,,SKC,0.00,VWS V14.01,2013-06-16 18:40:00,
2013-06-16 15:00:00,73.2,32.1,29.94,SSW,207,0.0,3.6,22,0.00,,SKC,0.00,VWS V14.01,2013-06-16 19:00:00,
2013-06-16 15:20:00,74.1,32.9,29.94,NW,317,0.0,0.0,22,0.00,,SKC,0.00,VWS V14.01,2013-06-16 19:20:00,
2013-06-16 15:40:00,73.6,32.4,29.94,NNW,329,0.0,2.2,22,0.00,,SKC,0.00,VWS V14.01,2013-06-16 19:40:00,
2013-06-16 16:00:00,74.5,33.2,29.94,NW,317,0.0,2.7,22,0.00,,SKC,0.00,VWS V14.01,2013-06-16 20:00:00,
2013-06-16 16:20:00,75.2,32.6,29.94,NNW,332,0.0,3.1,21,0.00,,SKC,0.00,VWS V14.01,2013-06-16 20:20:00,
2013-06-16 16:40:00,75.6,31.7,29.94,NW,318,2.2,6.3,20,0.00,,SKC,0.00,VWS V14.01,2013-06-16 20:40:00,
2013-06-16 17:00:00,75.4,31.6,29.94,NW,324,0.0,2.2,20,0.00,,SKC,0.00,VWS V14.01,2013-06-16 21:00:00,
2013-06-16 17:20:00,74.7,32.2,29.94,East,89,0.0,4.0,21,0.00,,SKC,0.00,VWS V14.01,2013-06-16 21:20:00,
2013-06-16 17:40:00,74.7,32.2,29.94,East,101,0.0,4.0,21,0.00,,SKC,0.00,VWS V14.01,2013-06-16 21:40:00,
2013-06-16 18:00:00,73.8,31.4,29.94,SE,125,0.0,4.0,21,0.00,,SKC,0.00,VWS V14.01,2013-06-16 22:00:00,
2013-06-16 18:20:00,73.6,32.4,29.94,NW,310,0.0,3.1,22,0.00,,SKC,0.00,VWS V14.01,2013-06-16 22:20:00,
2013-06-16 18:40:00,73.4,33.4,29.94,NNE,15,0.0,2.7,23,0.00,,SKC,0.00,VWS V14.01,2013-06-16 22:40:00,
2013-06-16 19:00:00,72.3,32.5,29.94,East,91,0.0,3.1,23,0.00,,SKC,0.00,VWS V14.01,2013-06-16 23:00:00,
2013-06-16 19:20:00,71.4,34.8,29.94,North,2,0.0,3.1,26,0.00,,SKC,0.00,VWS V14.01,2013-06-16 23:20:00,
2013-06-16 19:40:00,71.1,37.2,29.94,SSE,154,0.0,3.1,29,0.00,,SKC,0.00,VWS V14.01,2013-06-16 23:40:00,
2013-06-16 20:00:00,70.5,38.5,29.94,SSE,154,0.0,0.0,31,0.00,,SKC,0.00,VWS V14.01,2013-06-17 00:00:00,
2013-06-16 20:20:00,69.8,38.6,29.94,North,357,0.0,0.0,32,0.00,,SKC,0.00,VWS V14.01,2013-06-17 00:20:00,
2013-06-16 20:40:00,69.3,38.2,29.94,NW,323,0.0,0.0,32,0.00,,SKC,0.00,VWS V14.01,2013-06-17 00:40:00,
2013-06-16 21:00:00,68.5,38.3,29.94,NW,323,0.0,0.0,33,0.00,,SKC,0.00,VWS V14.01,2013-06-17 01:00:00,
2013-06-16 21:20:00,67.8,38.5,29.94,NW,323,0.0,0.0,34,0.00,,SKC,0.00,VWS V14.01,2013-06-17 01:20:00,
2013-06-16 21:40:00,67.1,38.6,29.94,NW,323,0.0,0.0,35,0.00,,SKC,0.00,VWS V14.01,2013-06-17 01:40:00,
2013-06-16 22:00:00,66.6,38.8,29.94,NW,323,0.0,0.0,36,0.00,,SKC,0.00,VWS V14.01,2013-06-17 02:00:00,
2013-06-16 22:20:00,65.8,40.9,29.97,NW,323,0.0,0.0,40,0.00,,SKC,0.00,VWS V14.01,2013-06-17 02:20:00,
2013-06-16 22:40:00,65.1,41.5,29.97,NW,323,0.0,0.0,42,0.00,,SKC,0.00,VWS V14.01,2013-06-17 02:40:00,
2013-06-16 23:00:00,64.6,42.2,29.97,NW,323,0.0,0.0,44,0.00,,SKC,0.00,VWS V14.01,2013-06-17 03:00:00,
2013-06-16 23:20:00,64.0,43.4,29.97,NW,323,0.0,0.0,47,0.00,,SKC,0.00,VWS V14.01,2013-06-17 03:20:00,
2013-06-16 23:40:00,63.9,44.3,29.97,NW,323,0.0,0.0,49,0.00,,SKC,0.00,VWS V14.01,2013-06-17 03:40:00,